Southeast Iowa Regional Airport Burlington US
ICAO: KBRL
IATA: BRL
Category: Medium
Scheduled Services: Yes

Elevation: 698 ft
TransAlt. 18000 ft.

Airport Communications:
ASOS:118.025
CHICAGO CNTR:135.6
FORT DODGE RDO:122.65
CTAF/UNICOM:123

KBRL Zoom In..

If you have problems with the map follow the link
https://www.worldairports.se/pages/airport.php?
ICAO=KBRL

Runways:

(A) RW 12 length 5351 ft width 100 ft
---- / hdg 119

(B) RW 18 length 6701 ft width 150 ft
---- / hdg 179

(C) RW 30 length 5351 ft width 100 ft
---- / hdg 299

(D) RW 36 length 6701 ft width 150 ft
ILS 108.90 / hdg 359

Location; KBRL
Day. 20 / Time. 21.04 Zulu
* Altimeter: 29.72
* Temperature: 02° c. 35.6°f.
* Wind from: 230° Speed 13 kn with Gusts up to 19 kn.
Dewpoint: -01° c.
Visibility: 9 Statute Miles.
Clouds: Scattered 1100 ft.
Clouds: Broken 1600 ft.
Clouds: Overcast 2400 ft.

KBRL 202104Z AUTO 23013G19KT 9SM SCT011 BKN016 OVC024 02/M01 A2972 RMK AO2 T00171006


Wind From 230°
Speed 13 kn.

 
 
jpsmedia.com for Web Design worldairports.se 2019   terms of use